createdAt,value
2023-04-16T00:02:10.962Z,5.43
2023-04-16T00:04:38.937Z,5.50
2023-04-16T00:07:06.874Z,5.47
2023-04-16T00:09:34.757Z,5.33
2023-04-16T00:12:02.682Z,5.20
2023-04-16T00:14:31.192Z,5.20
2023-04-16T00:16:59.216Z,5.93
2023-04-16T00:19:28.521Z,5.90
2023-04-16T00:21:56.387Z,5.30
2023-04-16T00:24:24.373Z,5.53
2023-04-16T00:26:52.233Z,5.50
2023-04-16T00:29:20.182Z,5.30
2023-04-16T00:31:48.042Z,6.07
2023-04-16T00:34:16.046Z,5.33
2023-04-16T00:36:45.271Z,5.27
2023-04-16T00:39:13.112Z,5.80
2023-04-16T00:41:41.213Z,5.07
2023-04-16T00:44:09.040Z,5.90
2023-04-16T00:46:38.963Z,5.27
2023-04-16T00:49:07.064Z,5.47
2023-04-16T00:51:36.574Z,5.57
2023-04-16T00:54:05.993Z,5.63
2023-04-16T00:56:34.690Z,5.80
2023-04-16T00:59:02.701Z,5.63
2023-04-16T01:01:30.656Z,5.90
2023-04-16T01:03:58.654Z,5.67
2023-04-16T01:06:26.844Z,5.40
2023-04-16T01:08:54.872Z,5.27
2023-04-16T01:11:24.126Z,5.63
2023-04-16T01:13:51.973Z,5.20
2023-04-16T01:16:19.908Z,5.00
2023-04-16T01:18:47.934Z,5.23
2023-04-16T01:21:17.153Z,5.13
2023-04-16T01:23:44.966Z,5.80
2023-04-16T01:26:12.933Z,5.30
2023-04-16T01:28:41.192Z,4.97
2023-04-16T01:31:09.705Z,6.00
2023-04-16T01:33:37.573Z,5.27
2023-04-16T01:36:05.837Z,5.70
2023-04-16T01:38:35.250Z,5.70
2023-04-16T01:41:03.084Z,5.60
2023-04-16T01:43:30.982Z,5.70
2023-04-16T01:46:13.524Z,5.37
2023-04-16T01:48:41.442Z,5.87
2023-04-16T01:51:10.087Z,6.03
2023-04-16T01:53:39.370Z,5.57
2023-04-16T01:56:08.023Z,5.50
2023-04-16T01:58:35.908Z,5.03
2023-04-16T02:01:04.484Z,5.90
2023-04-16T02:03:32.978Z,5.30
2023-04-16T02:06:01.280Z,5.33
2023-04-16T02:08:29.153Z,5.43
2023-04-16T02:10:58.929Z,5.33
2023-04-16T02:13:26.886Z,5.77
2023-04-16T02:15:54.770Z,5.70
2023-04-16T02:18:22.628Z,5.17
2023-04-16T02:20:50.688Z,5.30
2023-04-16T02:23:18.725Z,4.70
2023-04-16T02:25:47.874Z,5.00
2023-04-16T02:28:17.947Z,5.10
2023-04-16T02:30:46.034Z,4.97
2023-04-16T02:33:14.009Z,4.20
2023-04-16T02:35:42.466Z,4.43
2023-04-16T02:38:10.468Z,4.43
2023-04-16T02:40:38.349Z,4.30
2023-04-16T02:43:06.685Z,4.77
2023-04-16T02:45:35.981Z,4.57
2023-04-16T02:48:03.877Z,4.43
2023-04-16T02:50:31.784Z,4.50
2023-04-16T02:52:59.702Z,4.73
2023-04-16T02:55:29.496Z,4.57
2023-04-16T02:57:57.418Z,4.70
2023-04-16T03:00:25.695Z,4.83
2023-04-16T03:02:55.149Z,4.93
2023-04-16T03:05:23.182Z,4.80
2023-04-16T03:07:56.530Z,4.77
2023-04-16T03:10:24.910Z,4.80
2023-04-16T03:12:52.785Z,4.03
2023-04-16T03:15:20.999Z,4.23
2023-04-16T03:17:48.949Z,4.40
2023-04-16T03:20:19.162Z,4.27
2023-04-16T03:22:47.237Z,4.57
2023-04-16T03:25:15.334Z,4.80
2023-04-16T03:27:43.163Z,4.83
2023-04-16T03:30:13.277Z,4.13
2023-04-16T03:32:41.944Z,5.10
2023-04-16T03:35:10.822Z,4.63
2023-04-16T03:37:40.157Z,4.57
2023-04-16T03:40:09.060Z,4.40
2023-04-16T03:42:36.930Z,4.40
2023-04-16T03:45:05.251Z,4.70
2023-04-16T03:47:33.113Z,4.87
2023-04-16T03:50:01.051Z,4.73
2023-04-16T03:52:29.254Z,4.83
2023-04-16T03:54:58.585Z,5.10
2023-04-16T03:57:26.404Z,4.57
2023-04-16T03:59:54.226Z,4.63
2023-04-16T04:02:22.280Z,4.90
2023-04-16T04:04:50.359Z,5.27
2023-04-16T04:07:18.270Z,6.37
2023-04-16T04:09:46.124Z,5.63
2023-04-16T04:12:15.371Z,5.10
2023-04-16T04:14:43.230Z,5.20
2023-04-16T04:17:11.067Z,5.07
2023-04-16T04:19:42.333Z,5.00
2023-04-16T04:22:15.462Z,5.10
2023-04-16T04:24:43.318Z,5.10
2023-04-16T04:27:11.181Z,4.90
2023-04-16T04:29:40.442Z,4.70
2023-04-16T04:32:08.337Z,4.30
2023-04-16T04:34:36.372Z,4.60
2023-04-16T04:37:04.237Z,4.53
2023-04-16T04:39:32.077Z,4.67
2023-04-16T04:42:00.073Z,4.73
2023-04-16T04:44:27.937Z,4.70
2023-04-16T04:46:57.174Z,4.63
2023-04-16T04:49:25.117Z,4.67
2023-04-16T04:51:53.040Z,5.30
2023-04-16T04:54:21.118Z,5.47
2023-04-16T04:56:49.026Z,4.73
2023-04-16T04:59:16.859Z,4.90
2023-04-16T05:01:44.846Z,4.90
2023-04-16T05:04:14.193Z,5.10
2023-04-16T05:06:42.083Z,4.87
2023-04-16T05:09:11.730Z,4.63
2023-04-16T05:11:40.286Z,4.70
2023-04-16T05:14:08.213Z,4.93
2023-04-16T05:16:37.938Z,4.70
2023-04-16T05:19:06.362Z,5.00
2023-04-16T05:21:35.817Z,4.13
2023-04-16T05:24:03.677Z,4.33
2023-04-16T05:26:31.494Z,5.33
2023-04-16T05:28:59.493Z,5.53
2023-04-16T05:31:27.485Z,5.47
2023-04-16T05:33:55.383Z,5.00
2023-04-16T05:36:23.241Z,4.57
2023-04-16T05:38:52.460Z,4.60
2023-04-16T05:41:20.447Z,4.80
2023-04-16T05:43:48.326Z,5.17
2023-04-16T05:46:16.163Z,4.57
2023-04-16T05:48:44.121Z,4.97
2023-04-16T05:51:11.960Z,4.83
2023-04-16T05:53:39.840Z,4.87
2023-04-16T05:56:09.616Z,5.00
2023-04-16T05:58:37.431Z,4.90
2023-04-16T06:01:05.313Z,4.60
2023-04-16T06:03:33.295Z,4.20
2023-04-16T06:06:01.362Z,4.30
2023-04-16T06:08:29.461Z,4.37
2023-04-16T06:10:57.589Z,4.90
2023-04-16T06:13:26.790Z,15.53
2023-04-16T06:15:54.680Z,21.33
2023-04-16T06:18:22.558Z,7.20
2023-04-16T06:20:50.440Z,16.40
2023-04-16T06:23:18.263Z,21.97
2023-04-16T06:25:46.118Z,20.67
2023-04-16T06:28:13.975Z,40.33
2023-04-16T06:30:44.631Z,7.30
2023-04-16T06:33:12.857Z,6.40
2023-04-16T06:35:40.951Z,10.00
2023-04-16T06:38:08.904Z,9.37
2023-04-16T06:40:37.589Z,9.23
2023-04-16T06:43:05.548Z,7.40
2023-04-16T06:45:33.578Z,6.87
2023-04-16T06:48:03.819Z,6.90
2023-04-16T06:50:31.854Z,7.37
2023-04-16T06:52:59.780Z,6.83
2023-04-16T06:55:27.653Z,7.00
2023-04-16T06:57:55.525Z,7.20
2023-04-16T07:00:23.506Z,6.60
2023-04-16T07:02:51.606Z,6.97
2023-04-16T07:05:20.932Z,6.63
2023-04-16T07:07:48.788Z,6.53
2023-04-16T07:10:16.757Z,7.00
2023-04-16T07:12:44.943Z,6.67
2023-04-16T07:15:12.986Z,5.73
2023-04-16T07:17:40.915Z,6.47
2023-04-16T07:20:10.064Z,6.50
2023-04-16T07:22:39.271Z,6.67
2023-04-16T07:25:07.960Z,5.53
2023-04-16T07:27:35.811Z,4.47
2023-04-16T07:30:03.999Z,4.77
2023-04-16T07:32:31.981Z,3.73
2023-04-16T07:35:00.454Z,3.97
2023-04-16T07:37:28.411Z,4.23
2023-04-16T07:39:58.401Z,5.47
2023-04-16T07:42:26.472Z,6.20
2023-04-16T07:44:54.356Z,5.60
2023-04-16T07:47:23.127Z,6.33
2023-04-16T07:49:51.197Z,5.07
2023-04-16T07:52:19.258Z,5.17
2023-04-16T07:54:47.172Z,5.50
2023-04-16T07:57:16.525Z,5.77
2023-04-16T07:59:44.362Z,5.60
2023-04-16T08:02:15.414Z,5.37
2023-04-16T08:04:43.926Z,5.30
2023-04-16T08:07:11.942Z,5.27
2023-04-16T08:09:48.926Z,5.47
2023-04-16T08:12:18.294Z,5.50
2023-04-16T08:14:46.975Z,5.73
2023-04-16T08:17:15.931Z,5.50
2023-04-16T08:19:44.793Z,5.50
2023-04-16T08:22:13.104Z,6.13
2023-04-16T08:24:40.962Z,6.30
2023-04-16T08:27:18.488Z,6.03
2023-04-16T08:29:49.568Z,6.77
2023-04-16T08:32:17.520Z,6.70
2023-04-16T08:34:45.529Z,7.00
2023-04-16T08:37:13.374Z,7.80
2023-04-16T08:39:41.460Z,9.40
2023-04-16T08:42:15.215Z,8.10
2023-04-16T08:44:48.907Z,7.60
2023-04-16T08:47:18.999Z,9.40
2023-04-16T08:49:47.180Z,7.90
2023-04-16T08:52:19.770Z,8.37
2023-04-16T08:54:56.533Z,7.90
2023-04-16T08:57:28.090Z,7.63
2023-04-16T08:59:56.997Z,7.47
2023-04-16T09:02:27.479Z,7.40
2023-04-16T09:04:57.726Z,7.33
2023-04-16T09:07:26.978Z,6.77
2023-04-16T09:09:55.775Z,9.83
2023-04-16T09:12:25.162Z,7.57
2023-04-16T09:14:53.185Z,6.60
2023-04-16T09:17:21.127Z,7.03
2023-04-16T09:19:50.441Z,6.40
2023-04-16T09:22:18.367Z,6.00
2023-04-16T09:24:46.197Z,5.83
2023-04-16T09:27:14.169Z,5.97
2023-04-16T09:29:43.063Z,5.90
2023-04-16T09:32:12.416Z,5.67
2023-04-16T09:37:38.107Z,6.23
2023-04-16T09:40:06.904Z,5.90
2023-04-16T09:42:36.959Z,5.90
2023-04-16T09:45:06.324Z,8.43
2023-04-16T09:47:42.353Z,17.07
2023-04-16T09:50:12.820Z,6.30
2023-04-16T09:52:44.854Z,7.10
2023-04-16T09:55:12.775Z,6.20
2023-04-16T09:57:40.703Z,6.03
2023-04-16T10:00:10.367Z,6.03
2023-04-16T10:02:41.904Z,5.37
2023-04-16T10:05:10.649Z,5.13
2023-04-16T10:07:38.781Z,5.43
2023-04-16T10:10:09.312Z,4.87
2023-04-16T10:12:37.174Z,4.93
2023-04-16T10:15:05.844Z,5.23
2023-04-16T10:17:34.656Z,4.87
2023-04-16T10:20:07.070Z,4.17
2023-04-16T10:22:35.269Z,4.00
2023-04-16T10:25:09.223Z,4.27
2023-04-16T10:27:38.451Z,3.67
2023-04-16T10:30:12.182Z,3.40
2023-04-16T10:32:43.511Z,3.40
2023-04-16T10:35:17.579Z,2.10
2023-04-16T10:37:45.469Z,2.30
2023-04-16T10:40:29.727Z,2.43
2023-04-16T10:43:01.546Z,3.00
2023-04-16T10:45:33.538Z,2.63
2023-04-16T10:48:06.573Z,3.30
2023-04-16T10:50:38.171Z,3.40
2023-04-16T10:53:19.831Z,3.20
2023-04-16T10:56:16.135Z,3.47
2023-04-16T10:58:44.019Z,3.33
2023-04-16T11:01:16.880Z,2.80
2023-04-16T11:03:47.774Z,3.03
2023-04-16T11:06:17.827Z,4.07
2023-04-16T11:08:54.721Z,4.70
2023-04-16T11:11:24.812Z,4.37
2023-04-16T11:13:57.075Z,3.97
2023-04-16T11:16:26.435Z,4.20
2023-04-16T11:18:56.335Z,3.87
2023-04-16T11:21:25.399Z,3.70
2023-04-16T11:23:54.386Z,4.10
2023-04-16T11:26:28.482Z,4.10
2023-04-16T11:28:57.455Z,3.90
2023-04-16T11:31:27.249Z,5.10
2023-04-16T11:33:57.862Z,4.40
2023-04-16T11:38:28.859Z,4.00
2023-04-16T11:39:14.424Z,3.70
2023-04-16T11:41:47.557Z,4.00
2023-04-16T11:44:20.036Z,4.17
2023-04-16T11:46:48.025Z,3.60
2023-04-16T11:49:17.376Z,3.40
2023-04-16T11:51:46.752Z,3.00
2023-04-16T11:54:21.426Z,3.50
2023-04-16T11:56:51.865Z,2.80
2023-04-16T11:59:21.214Z,3.07
2023-04-16T12:01:50.948Z,2.93
2023-04-16T12:04:21.124Z,2.73
2023-04-16T12:07:08.741Z,2.30
2023-04-16T12:09:39.999Z,2.30
2023-04-16T12:12:27.397Z,3.07
2023-04-16T12:14:56.857Z,2.50
2023-04-16T12:17:25.522Z,2.70
2023-04-16T12:19:57.277Z,2.20
2023-04-16T12:22:33.566Z,2.40
2023-04-16T12:25:04.294Z,2.53
2023-04-16T12:27:53.035Z,2.70
2023-04-16T12:30:23.494Z,2.70
2023-04-16T12:32:52.978Z,2.60
2023-04-16T12:35:33.970Z,2.10
2023-04-16T12:38:03.563Z,2.07
2023-04-16T12:40:31.467Z,2.20
2023-04-16T12:43:01.009Z,2.37
2023-04-16T12:45:29.232Z,3.07
2023-04-16T12:47:57.580Z,2.67
2023-04-16T12:50:25.654Z,2.70
2023-04-16T12:52:53.507Z,2.50
2023-04-16T12:55:21.432Z,2.60
2023-04-16T12:57:49.910Z,4.67
2023-04-16T13:00:19.870Z,3.00
2023-04-16T13:02:47.929Z,3.10
2023-04-16T13:05:16.719Z,2.70
2023-04-16T13:07:44.616Z,2.70
2023-04-16T13:10:13.486Z,2.30
2023-04-16T13:12:41.466Z,2.73
2023-04-16T13:15:10.921Z,2.53
2023-04-16T13:17:40.204Z,2.90
2023-04-16T13:20:09.078Z,3.17
2023-04-16T13:22:37.085Z,3.10
2023-04-16T13:25:05.427Z,2.80
2023-04-16T13:27:33.266Z,2.97
2023-04-16T13:30:01.327Z,3.30
2023-04-16T13:32:29.255Z,3.40
2023-04-16T13:34:58.594Z,2.80
2023-04-16T13:37:26.474Z,3.30
2023-04-16T13:39:54.302Z,3.23
2023-04-16T13:42:22.268Z,3.10
2023-04-16T13:44:53.162Z,2.80
2023-04-16T13:47:21.097Z,2.87
2023-04-16T13:49:48.970Z,2.80
2023-04-16T13:52:18.202Z,2.40
2023-04-16T13:54:46.081Z,2.73
2023-04-16T13:57:14.005Z,2.50
2023-04-16T13:59:41.974Z,2.67
2023-04-16T14:02:11.564Z,2.80
2023-04-16T14:04:39.433Z,2.20
2023-04-16T14:07:07.288Z,2.60
2023-04-16T14:09:36.575Z,2.43
2023-04-16T14:12:04.739Z,2.60
2023-04-16T14:14:32.650Z,2.13
2023-04-16T14:17:01.020Z,1.97
2023-04-16T14:19:28.889Z,2.10
2023-04-16T14:21:56.830Z,1.90
2023-04-16T14:24:24.666Z,1.40
2023-04-16T14:26:53.920Z,1.63
2023-04-16T14:29:21.817Z,1.90
2023-04-16T14:31:50.405Z,2.80
2023-04-16T14:34:18.339Z,2.60
2023-04-16T14:36:46.454Z,3.37
2023-04-16T14:39:14.308Z,3.50
2023-04-16T14:41:42.155Z,3.57
2023-04-16T14:44:11.419Z,4.00
2023-04-16T14:46:40.990Z,3.10
2023-04-16T14:49:11.932Z,3.03
2023-04-16T14:51:40.476Z,3.00
2023-04-16T14:54:08.597Z,3.13
2023-04-16T14:56:36.468Z,3.10
2023-04-16T14:59:04.555Z,3.17
2023-04-16T15:01:34.663Z,3.43
2023-04-16T15:04:03.135Z,2.73
2023-04-16T15:06:32.292Z,2.03
2023-04-16T15:09:00.379Z,2.80
2023-04-16T15:11:28.545Z,2.40
2023-04-16T15:13:56.364Z,2.13
2023-04-16T15:16:24.750Z,1.93
2023-04-16T15:18:54.102Z,2.30
2023-04-16T15:21:22.463Z,1.83
2023-04-16T15:23:50.334Z,2.70
2023-04-16T15:26:18.192Z,1.90
2023-04-16T15:28:46.172Z,1.60
2023-04-16T15:31:14.122Z,1.73
2023-04-16T15:33:41.984Z,1.80
2023-04-16T15:36:11.460Z,1.87
2023-04-16T15:38:39.313Z,2.10
2023-04-16T15:41:07.219Z,1.73
2023-04-16T15:43:35.133Z,2.77
2023-04-16T15:46:03.179Z,3.63
2023-04-16T15:48:31.169Z,3.00
2023-04-16T15:50:59.039Z,2.83
2023-04-16T15:53:28.341Z,2.47
2023-04-16T15:55:56.247Z,2.87
2023-04-16T15:58:24.144Z,2.00
2023-04-16T16:00:52.316Z,2.47
2023-04-16T16:03:20.757Z,2.33
2023-04-16T16:05:49.079Z,2.50
2023-04-16T16:08:17.482Z,2.60
2023-04-16T16:10:46.816Z,2.87
2023-04-16T16:13:18.097Z,2.40
2023-04-16T16:15:46.415Z,2.13
2023-04-16T16:18:14.282Z,1.90
2023-04-16T16:20:42.111Z,2.27
2023-04-16T16:23:10.066Z,2.63
2023-04-16T16:25:37.908Z,2.07
2023-04-16T16:28:07.230Z,2.10
2023-04-16T16:30:35.211Z,2.00
2023-04-16T16:33:03.338Z,1.93
2023-04-16T16:35:31.189Z,1.67
2023-04-16T16:37:59.487Z,2.30
2023-04-16T16:40:27.321Z,2.00
2023-04-16T16:42:55.223Z,1.50
2023-04-16T16:45:26.092Z,1.50
2023-04-16T16:47:54.796Z,3.20
2023-04-16T16:50:22.768Z,1.93
2023-04-16T16:52:50.698Z,2.10
2023-04-16T16:55:19.092Z,2.53
2023-04-16T16:57:47.005Z,2.67
2023-04-16T17:00:16.249Z,2.70
2023-04-16T17:02:45.741Z,2.20
2023-04-16T17:05:14.211Z,2.50
2023-04-16T17:07:42.101Z,2.80
2023-04-16T17:10:13.138Z,2.73
2023-04-16T17:12:41.038Z,2.90
2023-04-16T17:15:09.862Z,3.40
2023-04-16T17:17:37.805Z,2.40
2023-04-16T17:20:10.808Z,2.93
2023-04-16T17:22:40.079Z,3.43
2023-04-16T17:25:08.857Z,3.07
2023-04-16T17:27:36.759Z,3.33
2023-04-16T17:30:05.830Z,4.40
2023-04-16T17:32:34.348Z,3.87
2023-04-16T17:35:04.215Z,4.67
2023-04-16T17:37:34.183Z,4.83
2023-04-16T17:40:02.127Z,3.40
2023-04-16T17:42:30.014Z,2.80
2023-04-16T17:44:57.845Z,2.13
2023-04-16T17:47:25.740Z,2.93
2023-04-16T17:49:54.308Z,1.80
2023-04-16T17:52:22.355Z,2.37
2023-04-16T17:54:53.220Z,2.20
2023-04-16T17:57:21.183Z,2.10
2023-04-16T17:59:49.086Z,3.93
2023-04-16T18:02:17.092Z,2.00
2023-04-16T18:04:45.338Z,2.40
2023-04-16T18:07:13.382Z,2.83
2023-04-16T18:09:41.550Z,4.80
2023-04-16T18:12:10.852Z,4.37
2023-04-16T18:14:40.742Z,3.70
2023-04-16T18:17:08.714Z,3.47
2023-04-16T18:19:36.676Z,3.47
2023-04-16T18:22:04.504Z,4.93
2023-04-16T18:24:33.412Z,4.63
2023-04-16T18:27:01.631Z,4.70
2023-04-16T18:29:33.958Z,4.80
2023-04-16T18:32:04.426Z,4.10
2023-04-16T18:34:32.968Z,3.50
2023-04-16T18:37:00.951Z,3.27
2023-04-16T18:39:28.875Z,4.23
2023-04-16T18:41:57.686Z,4.00
2023-04-16T18:44:25.573Z,3.80
2023-04-16T18:46:54.850Z,4.47
2023-04-16T18:49:22.768Z,3.10
2023-04-16T18:51:51.180Z,2.93
2023-04-16T18:54:20.428Z,3.50
2023-04-16T18:56:48.297Z,3.40
2023-04-16T18:59:16.198Z,3.70
2023-04-16T19:01:44.067Z,3.23
2023-04-16T19:04:13.357Z,3.83
2023-04-16T19:06:41.248Z,4.40
2023-04-16T19:09:11.426Z,3.67
2023-04-16T19:11:39.635Z,4.13
2023-04-16T19:14:08.205Z,3.73
2023-04-16T19:16:36.215Z,4.00
2023-04-16T19:19:04.159Z,3.40
2023-04-16T19:21:33.668Z,3.70
2023-04-16T19:24:01.684Z,6.70
2023-04-16T19:26:29.566Z,5.67
2023-04-16T19:28:57.472Z,4.90
2023-04-16T19:31:26.157Z,5.30
2023-04-16T19:33:54.034Z,5.93
2023-04-16T19:36:21.893Z,7.43
2023-04-16T19:38:51.294Z,5.57
2023-04-16T19:41:19.195Z,4.30
2023-04-16T19:43:47.057Z,4.97
2023-04-16T19:46:15.504Z,4.57
2023-04-16T19:48:43.583Z,4.13
2023-04-16T19:51:11.421Z,3.60
2023-04-16T19:53:39.282Z,3.80
2023-04-16T19:56:08.695Z,3.73
2023-04-16T19:58:36.542Z,3.63
2023-04-16T20:01:10.211Z,3.83
2023-04-16T20:03:38.454Z,3.33
2023-04-16T20:06:07.711Z,3.30
2023-04-16T20:08:35.925Z,4.00
2023-04-16T20:11:03.743Z,3.77
2023-04-16T20:13:33.005Z,4.43
2023-04-16T20:16:01.230Z,3.90
2023-04-16T20:18:29.033Z,3.30
2023-04-16T20:20:57.012Z,3.47
2023-04-16T20:23:24.815Z,3.70
2023-04-16T20:25:52.686Z,3.40
2023-04-16T20:28:21.491Z,4.07
2023-04-16T20:30:51.096Z,3.90
2023-04-16T20:33:19.074Z,4.50
2023-04-16T20:35:47.214Z,3.70
2023-04-16T20:38:15.041Z,2.90
2023-04-16T20:40:45.033Z,2.77
2023-04-16T20:43:14.269Z,2.73
2023-04-16T20:45:45.940Z,3.53
2023-04-16T20:48:15.491Z,3.00
2023-04-16T20:50:43.391Z,3.47
2023-04-16T20:53:11.248Z,3.40
2023-04-16T20:55:39.048Z,3.33
2023-04-16T20:58:06.994Z,3.50
2023-04-16T21:00:34.812Z,3.10
2023-04-16T21:03:02.739Z,3.40
2023-04-16T21:05:33.401Z,3.17
2023-04-16T21:08:01.212Z,2.80
2023-04-16T21:10:29.014Z,3.70
2023-04-16T21:12:56.904Z,2.87
2023-04-16T21:15:24.769Z,2.93
2023-04-16T21:17:52.734Z,3.43
2023-04-16T21:20:20.721Z,3.57
2023-04-16T21:22:51.182Z,2.90
2023-04-16T21:25:19.058Z,2.60
2023-04-16T21:27:46.930Z,2.40
2023-04-16T21:30:15.871Z,3.13
2023-04-16T21:32:44.433Z,2.30
2023-04-16T21:35:12.464Z,3.20
2023-04-16T21:37:40.329Z,2.70
2023-04-16T21:40:10.244Z,3.50
2023-04-16T21:42:39.741Z,3.13
2023-04-16T21:45:09.034Z,3.53
2023-04-16T21:47:37.307Z,3.00
2023-04-16T21:50:05.935Z,2.47
2023-04-16T21:52:40.164Z,2.60
2023-04-16T21:55:10.630Z,2.80
2023-04-16T21:57:38.548Z,2.93
2023-04-16T22:00:12.224Z,3.50
2023-04-16T22:02:40.611Z,2.97
2023-04-16T22:05:09.294Z,2.40
2023-04-16T22:07:37.971Z,2.50
2023-04-16T22:10:06.874Z,2.77
2023-04-16T22:12:37.793Z,3.00
2023-04-16T22:15:06.373Z,2.73
2023-04-16T22:17:34.536Z,2.70
2023-04-16T22:20:06.299Z,2.90
2023-04-16T22:22:34.318Z,2.53
2023-04-16T22:25:02.372Z,2.70
2023-04-16T22:27:30.339Z,3.07
2023-04-16T22:29:59.597Z,2.90
2023-04-16T22:32:27.523Z,2.97
2023-04-16T22:34:55.503Z,2.70
2023-04-16T22:37:23.376Z,2.90
2023-04-16T22:39:51.341Z,2.47
2023-04-16T22:42:19.185Z,2.70
2023-04-16T22:44:47.043Z,2.70
2023-04-16T22:47:16.271Z,2.00
2023-04-16T22:49:44.234Z,2.33
2023-04-16T22:52:12.070Z,2.40
2023-04-16T22:54:39.921Z,2.80
2023-04-16T22:57:07.792Z,2.67
2023-04-16T22:59:35.643Z,2.37
2023-04-16T23:02:03.562Z,3.07
2023-04-16T23:04:32.943Z,2.70
2023-04-16T23:07:01.001Z,2.67
2023-04-16T23:09:28.877Z,2.10
2023-04-16T23:11:57.411Z,3.10
2023-04-16T23:14:26.540Z,2.80
2023-04-16T23:16:54.374Z,3.00
2023-04-16T23:19:22.413Z,3.20
2023-04-16T23:21:51.888Z,2.97
2023-04-16T23:24:19.752Z,2.90
2023-04-16T23:26:48.017Z,2.90
2023-04-16T23:29:15.927Z,3.37
2023-04-16T23:31:43.845Z,3.00
2023-04-16T23:34:11.711Z,2.80
2023-04-16T23:36:40.670Z,3.20
2023-04-16T23:39:10.106Z,3.37
2023-04-16T23:41:38.283Z,3.70
2023-04-16T23:44:06.589Z,3.57
2023-04-16T23:46:34.454Z,3.13
2023-04-16T23:49:02.352Z,3.37
2023-04-16T23:51:31.687Z,2.93
2023-04-16T23:53:59.571Z,2.70
2023-04-16T23:56:28.878Z,2.80
2023-04-16T23:58:56.893Z,2.80
